Estación Meteorológica Peña el Pijo (Robertgarden) [ 09/22/18 23:15:02 CEST ]

Fecha Hora Presion(HPa) Temp (°C) Humedad % Rocio (°C) Viento ( m/s) Direccion Lluvia 1Hora(mm) Lluvia 24H(mm) LLuvia Total(mm)
2018-Mar-27 01:01:48 1012.600 6.4 67 0.7         182.85
2018-Mar-27 02:01:48 1012.500 6.5 64 0.2         182.85
2018-Mar-27 03:01:42 1012.700 5.4 68 -0.0         182.85
2018-Mar-27 04:10:06 1012.700 4.6 69 -0.6         182.85
2018-Mar-27 05:01:39 1012.400 3.8 70 -1.2         182.85
2018-Mar-27 06:03:09 1012.700 3.8 70 -1.2         182.85
2018-Mar-27 07:02:05 1012.600 3.5 70 -1.4         182.85
2018-Mar-27 08:01:43 1013.400 4.0 69 -1.2         182.85
2018-Mar-27 09:01:50 1013.700 3.8 72 -0.8         182.85
2018-Mar-27 10:01:41 1014.100 10.6 62 3.6         182.85
2018-Mar-27 11:02:06 1014.500 13.4 53 4.0         182.85
2018-Mar-27 12:01:43 1014.700 16.2 46 4.5         182.85
2018-Mar-27 13:01:51 1014.400 17.8 43 5.0         182.85
2018-Mar-27 14:01:49 1013.800 18.9 39 4.6         182.85
2018-Mar-27 15:01:48 1013.400 20.6 34 4.1 1.8 WNW     182.85
2018-Mar-27 16:01:46 1013.000 20.9 32 3.5         182.85
2018-Mar-27 17:01:44 1012.900 21.6 32 4.2         182.85
2018-Mar-27 18:01:55 1012.800 19.6 34 3.2         182.85
2018-Mar-27 19:01:47 1012.800 18.2 36 2.8 0.5 WSW     182.85
2018-Mar-27 20:01:33 1013.400 14.9 44 2.7         182.85
2018-Mar-27 21:01:48 1013.400 12.6 51 2.7         182.85
2018-Mar-27 22:01:37 1014.100 10.0 58 2.2         182.85
2018-Mar-27 23:01:47 1014.700 8.3 64 1.9         182.85

Temperatura Máxima:21°    Temperatura Mínima:
Presión Máxima:1014.700 Hpa    Presión Mínima:1012.400 Hpa


Volver